Alamosa, Colorado
Current Conditions -  °F | °C
As of 7:52 AM on Sunday 21 Dec 2014 (Local Time) from KALS Reporting Station
Clear Clear  
Wind Chill:   Ceiling: Unl
Heat Index: 12°   Visibility: 10mi
Dew Point:   Wind: 5mph
Humidity: 84%   Direction: 150°SSE
Pressure: 29.97"   Gusts: NA
Location:  37.47°N, 105.87°W
Report Text: KALS 211452Z AUTO 15004KT 10SM CLR M11/M13 A2997 RMK AO2 SLP205 T11111133 55001
Loading
Personal Weather Stations






























Interactive Weather Map New forecast layout! Learn more

10-Day Weather Forecast

Advertisements
Track Severe Weather on mobile